createdAt,value
2023-01-26T00:02:24.154Z,79.51
2023-01-26T00:04:50.906Z,79.92
2023-01-26T00:07:17.620Z,79.74
2023-01-26T00:09:44.371Z,79.41
2023-01-26T00:12:11.169Z,80.13
2023-01-26T00:14:51.721Z,79.98
2023-01-26T00:17:30.538Z,79.47
2023-01-26T00:19:58.665Z,79.57
2023-01-26T00:22:34.327Z,80.05
2023-01-26T00:25:00.998Z,79.93
2023-01-26T00:27:27.619Z,79.80
2023-01-26T00:29:55.783Z,79.63
2023-01-26T00:32:22.709Z,79.68
2023-01-26T00:34:49.472Z,79.72
2023-01-26T00:37:16.286Z,80.03
2023-01-26T00:39:43.231Z,79.80
2023-01-26T00:42:11.306Z,79.88
2023-01-26T00:44:38.879Z,80.13
2023-01-26T00:47:10.256Z,80.00
2023-01-26T00:49:38.771Z,79.65
2023-01-26T00:52:05.984Z,79.88
2023-01-26T00:54:33.306Z,79.75
2023-01-26T00:57:00.234Z,80.06
2023-01-26T00:59:27.256Z,80.12
2023-01-26T01:01:55.711Z,79.98
2023-01-26T01:04:24.132Z,79.78
2023-01-26T01:06:51.994Z,80.28
2023-01-26T01:09:19.029Z,79.59
2023-01-26T01:11:45.853Z,79.99
2023-01-26T01:14:13.440Z,80.34
2023-01-26T01:16:40.798Z,80.17
2023-01-26T01:19:08.528Z,80.33
2023-01-26T01:21:36.743Z,80.19
2023-01-26T01:24:03.909Z,79.64
2023-01-26T01:26:30.915Z,80.15
2023-01-26T01:28:57.643Z,80.07
2023-01-26T01:31:26.271Z,79.95
2023-01-26T01:33:54.142Z,80.14
2023-01-26T01:36:21.125Z,79.83
2023-01-26T01:38:50.609Z,79.84
2023-01-26T01:41:20.588Z,80.45
2023-01-26T01:43:47.289Z,80.45
2023-01-26T01:46:21.186Z,80.35
2023-01-26T01:48:53.763Z,80.32
2023-01-26T01:54:11.863Z,80.04
2023-01-26T01:56:43.597Z,80.54
2023-01-26T01:59:13.064Z,80.17
2023-01-26T02:01:40.306Z,80.22
2023-01-26T02:04:08.197Z,80.15
2023-01-26T02:06:39.567Z,80.15
2023-01-26T02:09:08.985Z,80.04
2023-01-26T02:11:40.618Z,79.75
2023-01-26T02:18:04.542Z,80.02
2023-01-26T02:20:38.224Z,80.14
2023-01-26T02:23:12.426Z,80.08
2023-01-26T02:25:45.416Z,80.41
2023-01-26T02:28:13.798Z,80.20
2023-01-26T02:30:40.941Z,79.84
2023-01-26T02:33:08.968Z,80.49
2023-01-26T02:36:23.947Z,80.42
2023-01-26T02:38:59.194Z,80.26
2023-01-26T02:41:45.289Z,80.21
2023-01-26T02:44:14.749Z,80.62
2023-01-26T02:46:41.700Z,80.61
2023-01-26T02:49:26.960Z,80.31
2023-01-26T02:51:53.692Z,80.33
2023-01-26T02:54:53.477Z,80.31
2023-01-26T02:57:38.651Z,80.34
2023-01-26T03:00:11.129Z,80.75
2023-01-26T03:02:38.456Z,80.19
2023-01-26T03:05:05.555Z,80.48
2023-01-26T03:07:32.491Z,80.72
2023-01-26T03:09:59.307Z,80.90
2023-01-26T03:12:26.682Z,80.30
2023-01-26T03:15:12.313Z,80.60
2023-01-26T03:17:41.688Z,80.72
2023-01-26T03:20:29.466Z,80.28
2023-01-26T03:23:31.679Z,80.71
2023-01-26T03:26:16.789Z,80.47
2023-01-26T03:28:43.472Z,80.97
2023-01-26T03:31:10.318Z,81.09
2023-01-26T03:33:38.409Z,80.32
2023-01-26T03:36:06.008Z,80.38
2023-01-26T03:38:32.727Z,80.84
2023-01-26T03:41:18.217Z,80.68
2023-01-26T03:44:03.595Z,80.77
2023-01-26T03:46:48.744Z,80.48
2023-01-26T03:49:35.400Z,80.98
2023-01-26T03:52:20.430Z,80.98
2023-01-26T03:55:05.827Z,80.91
2023-01-26T03:57:32.515Z,80.57
2023-01-26T03:59:59.476Z,81.00
2023-01-26T04:02:44.701Z,80.72
2023-01-26T04:05:31.510Z,81.03
2023-01-26T04:08:21.715Z,80.67
2023-01-26T04:10:51.136Z,81.02
2023-01-26T04:13:36.902Z,80.64
2023-01-26T04:16:22.565Z,80.78
2023-01-26T04:19:08.113Z,80.94
2023-01-26T04:21:37.085Z,81.10
2023-01-26T04:24:16.805Z,80.80
2023-01-26T04:26:44.732Z,80.60
2023-01-26T04:29:13.200Z,81.18
2023-01-26T04:31:41.303Z,80.78
2023-01-26T04:34:11.839Z,80.63
2023-01-26T04:36:40.483Z,81.15
2023-01-26T04:39:07.864Z,81.02
2023-01-26T04:41:34.704Z,80.74
2023-01-26T04:44:01.394Z,80.52
2023-01-26T04:46:28.233Z,80.96
2023-01-26T04:48:55.088Z,80.64
2023-01-26T04:51:23.047Z,80.61
2023-01-26T04:53:51.568Z,81.06
2023-01-26T04:56:22.677Z,81.13
2023-01-26T04:58:49.528Z,80.85
2023-01-26T05:01:16.716Z,80.80
2023-01-26T05:03:43.634Z,81.00
2023-01-26T05:06:10.677Z,81.08
2023-01-26T05:08:38.223Z,80.84
2023-01-26T05:11:06.673Z,81.30
2023-01-26T05:13:35.976Z,80.82
2023-01-26T05:16:03.269Z,81.29
2023-01-26T05:18:30.491Z,80.82
2023-01-26T05:20:57.541Z,81.38
2023-01-26T05:23:24.358Z,80.88
2023-01-26T05:25:51.291Z,81.02
2023-01-26T05:28:19.306Z,81.01
2023-01-26T05:30:47.940Z,81.25
2023-01-26T05:33:16.068Z,80.79
2023-01-26T05:35:42.977Z,81.21
2023-01-26T05:38:09.868Z,81.07
2023-01-26T05:40:36.906Z,80.92
2023-01-26T05:43:03.683Z,81.14
2023-01-26T05:45:31.753Z,81.28
2023-01-26T05:47:58.665Z,81.06
2023-01-26T05:50:25.389Z,80.76
2023-01-26T05:52:52.147Z,81.21
2023-01-26T05:55:19.129Z,81.07
2023-01-26T05:57:45.871Z,81.11
2023-01-26T06:00:14.146Z,80.84
2023-01-26T06:02:42.346Z,80.90
2023-01-26T06:05:10.080Z,81.51
2023-01-26T06:07:37.290Z,81.18
2023-01-26T06:10:04.279Z,81.14
2023-01-26T06:12:35.520Z,81.05
2023-01-26T06:15:02.722Z,80.95
2023-01-26T06:17:29.558Z,81.11
2023-01-26T06:19:58.021Z,80.85
2023-01-26T06:22:24.994Z,80.94
2023-01-26T06:24:51.912Z,81.21
2023-01-26T06:27:19.333Z,81.46
2023-01-26T06:29:46.498Z,80.79
2023-01-26T06:32:14.099Z,81.23
2023-01-26T06:34:41.052Z,81.07
2023-01-26T06:37:09.321Z,80.96
2023-01-26T06:39:36.494Z,81.38
2023-01-26T06:42:03.451Z,80.97
2023-01-26T06:44:30.373Z,81.23
2023-01-26T06:46:57.112Z,81.33
2023-01-26T06:49:24.068Z,81.27
2023-01-26T06:51:57.305Z,81.21
2023-01-26T06:54:25.558Z,81.15
2023-01-26T06:56:55.228Z,81.36
2023-01-26T06:59:22.022Z,81.56
2023-01-26T07:01:49.755Z,80.96
2023-01-26T07:04:17.227Z,81.43
2023-01-26T07:06:44.239Z,81.33
2023-01-26T07:09:11.528Z,81.51
2023-01-26T07:11:39.636Z,81.42
2023-01-26T07:14:06.652Z,81.06
2023-01-26T07:16:34.008Z,81.06
2023-01-26T07:19:01.045Z,81.58
2023-01-26T07:21:27.814Z,81.46
2023-01-26T07:23:56.106Z,81.31
2023-01-26T07:26:23.054Z,81.33
2023-01-26T07:28:51.134Z,81.37
2023-01-26T07:31:18.022Z,81.28
2023-01-26T07:33:44.845Z,81.59
2023-01-26T07:36:11.658Z,81.45
2023-01-26T07:38:38.376Z,81.39
2023-01-26T07:41:07.889Z,81.40
2023-01-26T07:43:35.546Z,81.56
2023-01-26T07:46:04.835Z,81.11
2023-01-26T07:48:32.158Z,81.74
2023-01-26T07:51:00.001Z,81.03
2023-01-26T07:53:29.375Z,81.24
2023-01-26T07:56:06.996Z,81.46
2023-01-26T07:58:35.529Z,81.42
2023-01-26T08:01:09.290Z,81.78
2023-01-26T08:03:36.320Z,81.74
2023-01-26T08:06:03.342Z,81.47
2023-01-26T08:08:30.713Z,81.74
2023-01-26T08:10:58.486Z,81.42
2023-01-26T08:13:34.678Z,81.69
2023-01-26T08:16:03.695Z,81.86
2023-01-26T08:18:32.253Z,81.81
2023-01-26T08:21:00.460Z,81.83
2023-01-26T08:23:27.672Z,81.65
2023-01-26T08:25:54.582Z,81.53
2023-01-26T08:28:22.809Z,81.78
2023-01-26T08:30:49.946Z,81.92
2023-01-26T08:33:16.688Z,81.97
2023-01-26T08:35:44.965Z,81.93
2023-01-26T08:38:11.802Z,81.89
2023-01-26T08:40:38.793Z,82.06
2023-01-26T08:43:05.686Z,81.87
2023-01-26T08:45:32.752Z,81.81
2023-01-26T08:47:59.633Z,82.03
2023-01-26T08:50:26.674Z,81.67
2023-01-26T08:52:57.425Z,81.72
2023-01-26T08:55:24.296Z,82.48
2023-01-26T08:57:55.248Z,82.17
2023-01-26T09:00:24.320Z,82.06
2023-01-26T09:02:51.890Z,82.14
2023-01-26T09:05:18.815Z,81.91
2023-01-26T09:07:45.788Z,82.03
2023-01-26T09:10:14.307Z,82.52
2023-01-26T09:12:41.360Z,82.35
2023-01-26T09:15:09.419Z,82.30
2023-01-26T09:17:37.190Z,82.33
2023-01-26T09:20:05.043Z,82.29
2023-01-26T09:22:31.892Z,81.96
2023-01-26T09:24:58.690Z,82.49
2023-01-26T09:27:26.931Z,82.42
2023-01-26T09:29:54.081Z,82.43
2023-01-26T09:32:20.800Z,82.35
2023-01-26T09:34:47.779Z,83.19
2023-01-26T09:37:15.083Z,82.97
2023-01-26T09:39:44.496Z,82.75
2023-01-26T09:42:44.238Z,83.03
2023-01-26T09:45:26.823Z,83.39
2023-01-26T09:48:12.212Z,82.84
2023-01-26T09:50:45.147Z,83.14
2023-01-26T09:53:17.111Z,82.71
2023-01-26T09:55:46.527Z,83.19
2023-01-26T09:58:22.200Z,83.03
2023-01-26T10:00:53.259Z,83.31
2023-01-26T10:03:25.974Z,82.82
2023-01-26T10:05:58.466Z,82.91
2023-01-26T10:08:26.972Z,83.38
2023-01-26T10:10:57.229Z,82.81
2023-01-26T10:13:26.215Z,83.44
2023-01-26T10:15:58.071Z,82.94
2023-01-26T10:18:30.201Z,82.97
2023-01-26T10:20:59.935Z,83.28
2023-01-26T10:23:29.918Z,83.67
2023-01-26T10:26:02.075Z,83.51
2023-01-26T10:28:30.867Z,83.86
2023-01-26T10:30:58.152Z,83.74
2023-01-26T10:33:28.033Z,84.15
2023-01-26T10:35:55.056Z,83.96
2023-01-26T10:38:40.608Z,84.04
2023-01-26T10:41:21.910Z,84.04
2023-01-26T10:43:54.345Z,84.33
2023-01-26T10:46:28.075Z,83.90
2023-01-26T10:48:56.149Z,84.26
2023-01-26T10:51:30.513Z,84.34
2023-01-26T10:54:14.399Z,83.99
2023-01-26T10:56:44.785Z,84.35
2023-01-26T10:59:21.615Z,84.22
2023-01-26T11:01:53.807Z,84.55
2023-01-26T11:04:21.120Z,84.93
2023-01-26T11:06:48.006Z,85.04
2023-01-26T11:09:20.289Z,85.05
2023-01-26T11:11:57.914Z,84.85
2023-01-26T11:14:26.185Z,85.00
2023-01-26T11:16:59.302Z,85.23
2023-01-26T11:19:43.433Z,84.78
2023-01-26T11:22:11.999Z,85.26
2023-01-26T11:24:47.214Z,85.26
2023-01-26T11:27:31.133Z,84.98
2023-01-26T11:30:17.634Z,84.69
2023-01-26T11:32:56.476Z,84.64
2023-01-26T11:35:32.568Z,84.50
2023-01-26T11:38:14.470Z,84.87
2023-01-26T11:40:47.407Z,84.84
2023-01-26T11:43:47.550Z,84.64
2023-01-26T11:46:33.562Z,84.90
2023-01-26T11:49:17.196Z,85.19
2023-01-26T11:51:55.311Z,85.92
2023-01-26T11:54:34.429Z,86.47
2023-01-26T11:57:09.658Z,86.10
2023-01-26T11:59:41.616Z,85.88
2023-01-26T12:02:28.241Z,85.98
2023-01-26T12:04:59.059Z,85.70
2023-01-26T12:07:30.247Z,85.60
2023-01-26T12:10:02.302Z,85.87
2023-01-26T12:12:32.982Z,85.74
2023-01-26T12:15:06.044Z,85.39
2023-01-26T12:17:45.574Z,85.44
2023-01-26T12:20:28.068Z,85.47
2023-01-26T12:23:03.151Z,85.41
2023-01-26T12:25:34.360Z,85.25
2023-01-26T12:28:11.564Z,85.44
2023-01-26T12:30:46.363Z,85.30
2023-01-26T12:33:15.293Z,85.06
2023-01-26T12:36:06.463Z,85.47
2023-01-26T12:38:47.320Z,85.34
2023-01-26T12:41:19.664Z,85.48
2023-01-26T12:43:57.365Z,85.08
2023-01-26T12:46:27.011Z,85.23
2023-01-26T12:48:57.892Z,85.83
2023-01-26T12:51:30.169Z,85.62
2023-01-26T12:54:02.665Z,85.60
2023-01-26T12:56:35.405Z,85.97
2023-01-26T12:59:09.608Z,86.08
2023-01-26T13:01:40.890Z,86.30
2023-01-26T13:04:12.647Z,85.84
2023-01-26T13:06:39.564Z,85.82
2023-01-26T13:09:22.811Z,85.86
2023-01-26T13:11:52.578Z,85.90
2023-01-26T13:14:45.621Z,85.76
2023-01-26T13:17:47.731Z,85.88
2023-01-26T13:20:46.975Z,85.95
2023-01-26T13:23:52.408Z,85.81
2023-01-26T13:26:43.531Z,85.54
2023-01-26T13:29:34.928Z,85.53
2023-01-26T13:32:55.232Z,85.43
2023-01-26T13:35:24.614Z,85.53
2023-01-26T13:37:59.235Z,85.63
2023-01-26T13:40:32.293Z,85.71
2023-01-26T13:43:20.738Z,85.69
2023-01-26T13:46:02.017Z,85.77
2023-01-26T13:48:40.112Z,85.46
2023-01-26T13:51:11.527Z,85.66
2023-01-26T13:53:41.978Z,85.49
2023-01-26T13:56:22.248Z,85.42
2023-01-26T13:58:50.483Z,85.62
2023-01-26T14:01:17.599Z,85.30
2023-01-26T14:03:48.406Z,85.20
2023-01-26T14:06:18.649Z,85.13
2023-01-26T14:08:53.774Z,85.08
2023-01-26T14:11:22.791Z,85.07
2023-01-26T14:13:57.304Z,85.08
2023-01-26T14:16:28.711Z,85.11
2023-01-26T14:19:06.731Z,84.89
2023-01-26T14:21:46.632Z,84.89
2023-01-26T14:24:13.960Z,84.64
2023-01-26T14:26:44.160Z,84.80
2023-01-26T14:29:19.141Z,84.67
2023-01-26T14:31:48.033Z,84.78
2023-01-26T14:34:21.133Z,84.52
2023-01-26T14:36:48.076Z,84.56
2023-01-26T14:39:20.203Z,84.44
2023-01-26T14:41:51.354Z,84.31
2023-01-26T14:44:19.630Z,84.42
2023-01-26T14:46:57.003Z,84.06
2023-01-26T14:49:33.134Z,83.92
2023-01-26T14:52:00.177Z,83.83
2023-01-26T14:54:31.820Z,84.05
2023-01-26T14:57:00.479Z,83.96
2023-01-26T14:59:41.046Z,83.82
2023-01-26T15:02:15.728Z,83.74
2023-01-26T15:04:47.115Z,83.35
2023-01-26T15:07:33.403Z,83.15
2023-01-26T15:10:00.673Z,83.31
2023-01-26T15:12:28.123Z,83.31
2023-01-26T15:14:59.101Z,83.18
2023-01-26T15:17:36.150Z,83.22
2023-01-26T15:20:03.474Z,83.17
2023-01-26T15:22:30.450Z,83.03
2023-01-26T15:25:19.122Z,82.97
2023-01-26T15:27:51.278Z,83.22
2023-01-26T15:30:25.717Z,82.83
2023-01-26T15:32:52.950Z,82.69
2023-01-26T15:35:22.995Z,82.55
2023-01-26T15:37:59.279Z,82.13
2023-01-26T15:40:26.151Z,81.91
2023-01-26T15:43:05.872Z,82.08
2023-01-26T15:45:36.439Z,81.92
2023-01-26T15:48:03.370Z,82.05
2023-01-26T15:50:30.231Z,82.17
2023-01-26T15:52:57.079Z,82.06
2023-01-26T15:55:26.994Z,82.02
2023-01-26T15:57:53.800Z,82.21
2023-01-26T16:00:20.898Z,81.89
2023-01-26T16:02:49.036Z,81.80
2023-01-26T16:05:18.587Z,81.72
2023-01-26T16:07:45.994Z,81.89
2023-01-26T16:10:12.898Z,82.20
2023-01-26T16:12:39.774Z,81.78
2023-01-26T16:15:27.628Z,82.04
2023-01-26T16:17:56.023Z,82.07
2023-01-26T16:20:23.137Z,82.15
2023-01-26T16:22:49.956Z,82.15
2023-01-26T16:25:23.766Z,82.13
2023-01-26T16:27:50.800Z,82.25
2023-01-26T16:30:18.139Z,82.29
2023-01-26T16:32:45.443Z,82.26
2023-01-26T16:35:15.493Z,82.54
2023-01-26T16:37:42.872Z,82.24
2023-01-26T16:40:12.119Z,82.51
2023-01-26T16:42:40.842Z,82.33
2023-01-26T16:45:15.438Z,82.66
2023-01-26T16:47:42.525Z,82.67
2023-01-26T16:50:10.267Z,82.56
2023-01-26T16:52:40.528Z,82.52
2023-01-26T16:55:12.901Z,82.58
2023-01-26T16:57:41.667Z,82.65
2023-01-26T17:00:16.191Z,82.75
2023-01-26T17:02:44.455Z,82.67
2023-01-26T17:05:34.408Z,82.65
2023-01-26T17:08:04.362Z,82.49
2023-01-26T17:10:31.706Z,82.45
2023-01-26T17:12:58.488Z,82.16
2023-01-26T17:15:30.003Z,82.25
2023-01-26T17:17:57.305Z,82.19
2023-01-26T17:20:24.667Z,82.00
2023-01-26T17:22:51.861Z,82.14
2023-01-26T17:25:20.567Z,81.94
2023-01-26T17:27:49.795Z,81.65
2023-01-26T17:30:17.717Z,81.66
2023-01-26T17:32:45.067Z,81.66
2023-01-26T17:35:12.211Z,80.71
2023-01-26T17:37:39.712Z,81.13
2023-01-26T17:40:08.486Z,81.14
2023-01-26T17:42:36.918Z,81.21
2023-01-26T17:45:08.186Z,81.21
2023-01-26T17:47:35.410Z,81.09
2023-01-26T17:50:02.436Z,81.04
2023-01-26T17:52:31.439Z,81.01
2023-01-26T17:54:59.205Z,80.96
2023-01-26T17:57:28.633Z,81.05
2023-01-26T17:59:56.792Z,80.95
2023-01-26T18:02:24.873Z,80.71
2023-01-26T18:04:52.074Z,80.81
2023-01-26T18:07:19.266Z,80.73
2023-01-26T18:09:46.423Z,80.76
2023-01-26T18:12:13.134Z,80.79
2023-01-26T18:14:39.958Z,80.89
2023-01-26T18:17:08.238Z,80.83
2023-01-26T18:19:34.924Z,80.69
2023-01-26T18:22:04.240Z,80.84
2023-01-26T18:24:31.653Z,80.70
2023-01-26T18:26:58.563Z,80.78
2023-01-26T18:29:25.495Z,80.68
2023-01-26T18:31:52.776Z,80.80
2023-01-26T18:34:20.934Z,80.73
2023-01-26T18:36:52.829Z,80.85
2023-01-26T18:39:19.412Z,80.69
2023-01-26T18:41:46.644Z,80.64
2023-01-26T18:44:13.369Z,80.83
2023-01-26T18:46:40.585Z,80.73
2023-01-26T18:49:10.451Z,80.81
2023-01-26T18:51:38.867Z,80.61
2023-01-26T18:54:09.726Z,80.70
2023-01-26T18:56:36.758Z,80.76
2023-01-26T18:59:04.701Z,80.74
2023-01-26T19:01:31.611Z,80.64
2023-01-26T19:03:59.033Z,80.67
2023-01-26T19:06:28.530Z,80.53
2023-01-26T19:09:06.467Z,80.73
2023-01-26T19:11:35.311Z,80.56
2023-01-26T19:14:03.544Z,80.71
2023-01-26T19:16:30.498Z,80.67
2023-01-26T19:18:57.782Z,80.59
2023-01-26T19:21:25.834Z,80.80
2023-01-26T19:23:55.872Z,80.72
2023-01-26T19:26:28.381Z,80.62
2023-01-26T19:28:55.856Z,80.59
2023-01-26T19:31:24.959Z,80.73
2023-01-26T19:33:52.271Z,80.77
2023-01-26T19:36:19.299Z,80.77
2023-01-26T19:38:46.731Z,80.65
2023-01-26T19:41:14.335Z,80.71
2023-01-26T19:43:42.821Z,80.58
2023-01-26T19:46:11.835Z,80.61
2023-01-26T19:48:38.701Z,80.83
2023-01-26T19:51:08.609Z,80.57
2023-01-26T19:53:37.265Z,80.74
2023-01-26T19:56:08.481Z,80.50
2023-01-26T19:58:35.814Z,80.44
2023-01-26T20:01:06.583Z,80.35
2023-01-26T20:03:34.003Z,80.49
2023-01-26T20:06:00.795Z,80.24
2023-01-26T20:08:29.066Z,80.53
2023-01-26T20:11:02.727Z,80.12
2023-01-26T20:13:29.634Z,80.36
2023-01-26T20:15:58.310Z,80.27
2023-01-26T20:18:27.211Z,79.96
2023-01-26T20:20:55.951Z,79.92
2023-01-26T20:23:23.771Z,80.05
2023-01-26T20:25:51.724Z,79.87
2023-01-26T20:28:18.863Z,79.94
2023-01-26T20:30:46.593Z,79.38
2023-01-26T20:33:13.411Z,79.66
2023-01-26T20:35:43.582Z,79.65
2023-01-26T20:38:11.057Z,79.78
2023-01-26T20:40:38.834Z,79.80
2023-01-26T20:43:05.606Z,79.61
2023-01-26T20:45:32.683Z,79.61
2023-01-26T20:47:59.548Z,79.88
2023-01-26T20:50:26.598Z,79.79
2023-01-26T20:52:55.479Z,79.70
2023-01-26T20:55:25.433Z,79.74
2023-01-26T20:57:52.483Z,79.89
2023-01-26T21:00:20.716Z,79.74
2023-01-26T21:02:47.416Z,79.66
2023-01-26T21:05:15.121Z,79.99
2023-01-26T21:07:42.081Z,79.82
2023-01-26T21:10:11.060Z,79.83
2023-01-26T21:12:38.283Z,80.04
2023-01-26T21:15:06.249Z,79.96
2023-01-26T21:17:33.320Z,80.03
2023-01-26T21:20:00.225Z,79.90
2023-01-26T21:22:27.118Z,79.95
2023-01-26T21:24:54.752Z,79.94
2023-01-26T21:27:22.994Z,80.20
2023-01-26T21:29:50.274Z,79.96
2023-01-26T21:32:17.136Z,79.98
2023-01-26T21:34:43.974Z,79.98
2023-01-26T21:37:10.814Z,79.98
2023-01-26T21:39:37.585Z,80.15
2023-01-26T21:42:04.646Z,80.04
2023-01-26T21:44:53.612Z,80.22
2023-01-26T21:47:20.426Z,80.07
2023-01-26T21:49:48.199Z,80.17
2023-01-26T21:52:33.490Z,80.14
2023-01-26T21:55:00.382Z,80.21
2023-01-26T21:57:46.116Z,80.19
2023-01-26T22:00:15.105Z,80.28
2023-01-26T22:02:41.827Z,80.08
2023-01-26T22:05:09.188Z,80.22
2023-01-26T22:07:39.056Z,80.18
2023-01-26T22:10:07.146Z,80.08
2023-01-26T22:12:34.132Z,80.17
2023-01-26T22:15:00.996Z,80.18
2023-01-26T22:17:38.042Z,80.31
2023-01-26T22:20:05.403Z,80.29
2023-01-26T22:22:32.265Z,80.09
2023-01-26T22:24:59.740Z,80.17
2023-01-26T22:27:26.616Z,80.18
2023-01-26T22:29:53.433Z,80.07
2023-01-26T22:32:20.397Z,80.32
2023-01-26T22:34:48.633Z,80.17
2023-01-26T22:37:15.572Z,79.93
2023-01-26T22:39:43.186Z,80.08
2023-01-26T22:42:10.023Z,80.09
2023-01-26T22:44:36.722Z,80.22
2023-01-26T22:47:03.637Z,80.18
2023-01-26T22:49:30.552Z,80.16
2023-01-26T22:51:59.016Z,80.10
2023-01-26T22:54:27.138Z,80.17
2023-01-26T22:56:54.116Z,80.16
2023-01-26T22:59:21.120Z,79.97
2023-01-26T23:01:47.918Z,80.04
2023-01-26T23:04:14.693Z,80.16
2023-01-26T23:06:41.460Z,80.19
2023-01-26T23:09:09.444Z,80.14
2023-01-26T23:11:36.186Z,79.81
2023-01-26T23:14:03.048Z,79.95
2023-01-26T23:16:30.297Z,79.82
2023-01-26T23:18:58.547Z,79.97
2023-01-26T23:21:26.317Z,80.16
2023-01-26T23:23:53.157Z,79.92
2023-01-26T23:26:22.243Z,79.90
2023-01-26T23:28:49.431Z,79.90
2023-01-26T23:31:18.431Z,80.19
2023-01-26T23:33:45.922Z,80.18
2023-01-26T23:36:13.764Z,80.00
2023-01-26T23:38:41.096Z,80.03
2023-01-26T23:41:12.012Z,79.60
2023-01-26T23:43:40.403Z,79.96
2023-01-26T23:46:08.788Z,79.79
2023-01-26T23:48:35.838Z,79.64
2023-01-26T23:51:05.100Z,80.01
2023-01-26T23:53:32.824Z,79.80
2023-01-26T23:56:03.063Z,79.66
2023-01-26T23:58:29.818Z,79.88
